KCLE/CLE METAR and TAF weather

Enter ICAO airport designator
Station Type Date Time Source
KCLE METAR 2019/06/26 21:51 UTC NOAA

KCLE 262151Z 30008KT 10SM FEW060 FEW250 31/17 A3008 RMK AO2 SLP180 T03060172


Station Type Date Time Source
KCLE Decoded METAR 2019/06/26 21:51 UTC NOAA

CLEVELAND-HOPKINS INTERNATIONAL , OH, United States (KCLE) 41-24N 081-51W 236M
Jun 26, 2019 - 05:51 PM EDT / 2019.06.26 2151 UTC
Wind: from the WNW (300 degrees) at 9 MPH (8 KT):0
Visibility: 10 mile(s):0
Sky conditions: mostly clear
Temperature: 87.1 F (30.6 C)
Dew Point: 63.0 F (17.2 C)
Relative Humidity: 44%
Pressure (altimeter): 30.08 in. Hg (1018 hPa)
ob: KCLE 262151Z 30008KT 10SM FEW060 FEW250 31/17 A3008 RMK AO2 SLP180 T03060172
cycle: 22

Station Type Date Time Source
KCLE TAF 2019/06/26 21:59 UTC NOAA

TAF
AMD KCLE 262059Z 2621/2724 31008KT P6SM SCT070
FM270800 VRB03KT P6SM SCT250

Example: see airport list